Time,TemperatureF,DewpointF,PressureIn,WindDirection,WindDirectionDegrees,WindSpeedMPH,WindSpeedGustMPH,Humidity,HourlyPrecipIn,Conditions,Clouds,dailyrainin,SoftwareType,DateUTC
2013-02-25 00:04:00,36.9,29.0,30.08,SSW,201,0.0,-999.0,74,-99.99,,,0.00,weatherlink.com 1.10,2013-02-25 05:04:00,
2013-02-25 00:19:00,36.5,29.0,30.08,SSW,201,0.0,-999.0,73,-99.99,,,0.00,weatherlink.com 1.10,2013-02-25 05:19:00,
2013-02-25 00:34:00,36.1,29.0,30.08,SSW,201,0.0,-999.0,76,-99.99,,,0.00,weatherlink.com 1.10,2013-02-25 05:34:00,
2013-02-25 00:49:00,36.0,29.0,30.07,SSW,201,0.0,-999.0,75,-99.99,,,0.00,weatherlink.com 1.10,2013-02-25 05:49:00,
2013-02-25 01:04:00,35.6,28.0,30.08,SSW,201,0.0,-999.0,75,-99.99,,,0.00,weatherlink.com 1.10,2013-02-25 06:04:00,
2013-02-25 01:19:00,35.3,27.0,30.08,SSW,201,0.0,-999.0,73,-99.99,,,0.00,weatherlink.com 1.10,2013-02-25 06:19:00,
2013-02-25 01:34:00,35.2,28.0,30.08,SSW,201,0.0,-999.0,75,-99.99,,,0.00,weatherlink.com 1.10,2013-02-25 06:34:00,
2013-02-25 01:49:00,35.3,28.0,30.09,SSW,201,0.0,-999.0,74,-99.99,,,0.00,weatherlink.com 1.10,2013-02-25 06:49:00,
2013-02-25 02:04:00,35.8,29.0,30.08,SSW,201,0.0,-999.0,75,-99.99,,,0.00,weatherlink.com 1.10,2013-02-25 07:04:00,
2013-02-25 02:19:00,34.6,27.0,30.07,SSW,201,0.0,-999.0,75,-99.99,,,0.00,weatherlink.com 1.10,2013-02-25 07:19:00,
2013-02-25 02:34:00,34.1,27.0,30.08,SSW,201,0.0,-999.0,76,-99.99,,,0.00,weatherlink.com 1.10,2013-02-25 07:34:00,
2013-02-25 02:49:00,34.2,26.0,30.08,SSW,201,0.0,-999.0,72,-99.99,,,0.00,weatherlink.com 1.10,2013-02-25 07:49:00,
2013-02-25 03:04:00,34.3,27.0,30.09,SSW,201,0.0,-999.0,74,-99.99,,,0.00,weatherlink.com 1.10,2013-02-25 08:04:00,
2013-02-25 03:19:00,34.1,28.0,30.07,SSW,201,0.0,-999.0,77,-99.99,,,0.00,weatherlink.com 1.10,2013-02-25 08:19:00,
2013-02-25 03:34:00,34.7,28.0,30.06,SSW,201,0.0,-999.0,75,-99.99,,,0.00,weatherlink.com 1.10,2013-02-25 08:34:00,
2013-02-25 03:49:00,34.4,27.0,30.07,SSW,201,0.0,-999.0,75,-99.99,,,0.00,weatherlink.com 1.10,2013-02-25 08:49:00,
2013-02-25 04:04:00,33.9,27.0,30.08,SSW,201,0.0,-999.0,75,-99.99,,,0.00,weatherlink.com 1.10,2013-02-25 09:04:00,
2013-02-25 04:19:00,33.8,27.0,30.09,SSW,201,0.0,-999.0,76,-99.99,,,0.00,weatherlink.com 1.10,2013-02-25 09:19:00,
2013-02-25 04:34:00,34.1,26.0,30.09,SSW,201,0.0,-999.0,72,-99.99,,,0.00,weatherlink.com 1.10,2013-02-25 09:34:00,
2013-02-25 04:49:00,34.0,26.0,30.09,SSW,198,0.0,-999.0,71,-99.99,,,0.00,weatherlink.com 1.10,2013-02-25 09:49:00,
2013-02-25 05:05:00,33.5,24.0,30.10,SSW,198,0.0,-999.0,67,-99.99,,,0.00,weatherlink.com 1.10,2013-02-25 10:05:00,
2013-02-25 05:20:00,33.3,22.0,30.10,SSW,198,0.0,-999.0,63,-99.99,,,0.00,weatherlink.com 1.10,2013-02-25 10:20:00,
2013-02-25 05:34:00,33.2,22.0,30.11,SSW,198,0.0,-999.0,63,-99.99,,,0.00,weatherlink.com 1.10,2013-02-25 10:34:00,
2013-02-25 05:49:00,33.3,22.0,30.10,SSW,198,0.0,-999.0,63,-99.99,,,0.00,weatherlink.com 1.10,2013-02-25 10:49:00,
2013-02-25 06:04:00,33.2,20.0,30.12,SSW,198,0.0,-999.0,58,-99.99,,,0.00,weatherlink.com 1.10,2013-02-25 11:04:00,
2013-02-25 06:19:00,32.9,19.0,30.12,SSW,198,0.0,-999.0,56,-99.99,,,0.00,weatherlink.com 1.10,2013-02-25 11:19:00,
2013-02-25 06:34:00,32.6,20.0,30.13,SSW,198,0.0,-999.0,59,-99.99,,,0.00,weatherlink.com 1.10,2013-02-25 11:34:00,
2013-02-25 06:49:00,32.8,19.0,30.14,SSW,198,0.0,-999.0,56,-99.99,,,0.00,weatherlink.com 1.10,2013-02-25 11:49:00,
2013-02-25 07:04:00,32.8,19.0,30.14,SSW,198,0.0,-999.0,58,-99.99,,,0.00,weatherlink.com 1.10,2013-02-25 12:04:00,
2013-02-25 07:19:00,32.7,20.0,30.14,East,86,0.0,-999.0,60,-99.99,,,0.00,weatherlink.com 1.10,2013-02-25 12:19:00,
2013-02-25 07:34:00,32.8,17.0,30.15,East,86,0.0,-999.0,52,-99.99,,,0.00,weatherlink.com 1.10,2013-02-25 12:34:00,
2013-02-25 07:49:00,32.8,14.0,30.15,East,86,0.0,-999.0,47,-99.99,,,0.00,weatherlink.com 1.10,2013-02-25 12:49:00,
2013-02-25 08:04:00,33.1,13.0,30.16,East,95,1.0,-999.0,43,-99.99,,,0.00,weatherlink.com 1.10,2013-02-25 13:04:00,
2013-02-25 08:19:00,34.2,27.0,30.17,East,93,1.0,-999.0,76,-99.99,,,0.00,weatherlink.com 1.10,2013-02-25 13:19:00,
2013-02-25 08:34:00,35.6,28.0,30.18,ESE,109,0.0,-999.0,75,-99.99,,,0.00,weatherlink.com 1.10,2013-02-25 13:34:00,
2013-02-25 08:49:00,36.4,28.0,30.19,WSW,245,1.0,-999.0,71,-99.99,,,0.00,weatherlink.com 1.10,2013-02-25 13:49:00,
2013-02-25 09:05:00,37.0,27.0,30.21,ESE,108,0.0,-999.0,68,-99.99,,,0.00,weatherlink.com 1.10,2013-02-25 14:05:00,
2013-02-25 09:20:00,37.3,28.0,30.22,ESE,109,0.0,-999.0,68,-99.99,,,0.00,weatherlink.com 1.10,2013-02-25 14:20:00,
2013-02-25 09:35:00,37.5,28.0,30.21,ESE,114,0.0,-999.0,68,-99.99,,,0.00,weatherlink.com 1.10,2013-02-25 14:35:00,
2013-02-25 09:50:00,37.6,28.0,30.21,East,80,0.0,-999.0,68,-99.99,,,0.00,weatherlink.com 1.10,2013-02-25 14:50:00,
2013-02-25 10:05:00,37.9,27.0,30.21,SE,140,3.0,-999.0,66,-99.99,,,0.00,weatherlink.com 1.10,2013-02-25 15:05:00,
2013-02-25 10:20:00,37.9,27.0,30.21,East,99,1.0,-999.0,66,-99.99,,,0.00,weatherlink.com 1.10,2013-02-25 15:20:00,
2013-02-25 10:35:00,37.8,27.0,30.21,ESE,120,0.0,-999.0,66,-99.99,,,0.00,weatherlink.com 1.10,2013-02-25 15:35:00,
2013-02-25 10:50:00,37.9,27.0,30.20,SE,125,2.0,-999.0,66,-99.99,,,0.00,weatherlink.com 1.10,2013-02-25 15:50:00,
2013-02-25 11:05:00,38.0,27.0,30.20,East,86,1.0,-999.0,65,-99.99,,,0.00,weatherlink.com 1.10,2013-02-25 16:05:00,
2013-02-25 11:20:00,38.5,28.0,30.18,ENE,73,2.0,-999.0,66,-99.99,,,0.00,weatherlink.com 1.10,2013-02-25 16:20:00,
2013-02-25 11:35:00,39.0,28.0,30.18,SE,133,1.0,-999.0,65,-99.99,,,0.00,weatherlink.com 1.10,2013-02-25 16:35:00,
2013-02-25 11:50:00,39.3,28.0,30.18,East,95,2.0,-999.0,63,-99.99,,,0.00,weatherlink.com 1.10,2013-02-25 16:50:00,
2013-02-25 12:05:00,39.5,28.0,30.18,ESE,103,2.0,-999.0,63,-99.99,,,0.00,weatherlink.com 1.10,2013-02-25 17:05:00,
2013-02-25 12:20:00,39.9,29.0,30.18,ENE,69,0.0,-999.0,64,-99.99,,,0.00,weatherlink.com 1.10,2013-02-25 17:20:00,
2013-02-25 12:35:00,40.5,28.0,30.18,East,79,0.0,-999.0,62,-99.99,,,0.00,weatherlink.com 1.10,2013-02-25 17:35:00,
2013-02-25 12:50:00,40.6,29.0,30.17,ENE,77,0.0,-999.0,63,-99.99,,,0.00,weatherlink.com 1.10,2013-02-25 17:50:00,
2013-02-25 13:05:00,40.9,28.0,30.16,ESE,107,3.0,-999.0,61,-99.99,,,0.00,weatherlink.com 1.10,2013-02-25 18:05:00,
2013-02-25 13:20:00,40.9,28.0,30.16,SSE,154,2.0,-999.0,61,-99.99,,,0.00,weatherlink.com 1.10,2013-02-25 18:20:00,
2013-02-25 13:35:00,41.3,29.0,30.15,East,92,2.0,-999.0,61,-99.99,,,0.00,weatherlink.com 1.10,2013-02-25 18:35:00,
2013-02-25 13:50:00,41.6,28.0,30.14,ESE,107,2.0,-999.0,59,-99.99,,,0.00,weatherlink.com 1.10,2013-02-25 18:50:00,
2013-02-25 14:05:00,42.3,30.0,30.15,East,89,1.0,-999.0,62,-99.99,,,0.00,weatherlink.com 1.10,2013-02-25 19:05:00,
2013-02-25 14:20:00,42.4,30.0,30.14,ESE,121,0.0,-999.0,63,-99.99,,,0.00,weatherlink.com 1.10,2013-02-25 19:20:00,
2013-02-25 14:34:00,42.5,30.0,30.13,ESE,112,0.0,-999.0,62,-99.99,,,0.00,weatherlink.com 1.10,2013-02-25 19:34:00,
2013-02-25 14:49:00,42.6,30.0,30.13,ESE,103,0.0,-999.0,62,-99.99,,,0.00,weatherlink.com 1.10,2013-02-25 19:49:00,
2013-02-25 15:04:00,43.0,30.0,30.12,ESE,121,2.0,-999.0,60,-99.99,,,0.00,weatherlink.com 1.10,2013-02-25 20:04:00,
2013-02-25 15:19:00,43.2,30.0,30.12,ESE,115,0.0,-999.0,61,-99.99,,,0.00,weatherlink.com 1.10,2013-02-25 20:19:00,
2013-02-25 15:34:00,43.8,30.0,30.12,ESE,115,0.0,-999.0,59,-99.99,,,0.00,weatherlink.com 1.10,2013-02-25 20:34:00,
2013-02-25 15:49:00,44.2,30.0,30.12,East,96,0.0,-999.0,58,-99.99,,,0.00,weatherlink.com 1.10,2013-02-25 20:49:00,
2013-02-25 16:04:00,44.3,29.0,30.13,SSE,148,2.0,-999.0,55,-99.99,,,0.00,weatherlink.com 1.10,2013-02-25 21:04:00,
2013-02-25 16:19:00,44.1,29.0,30.11,SE,133,1.0,-999.0,55,-99.99,,,0.00,weatherlink.com 1.10,2013-02-25 21:19:00,
2013-02-25 16:34:00,44.5,29.0,30.11,ENE,65,0.0,-999.0,56,-99.99,,,0.00,weatherlink.com 1.10,2013-02-25 21:34:00,
2013-02-25 16:49:00,44.3,30.0,30.11,ESE,102,0.0,-999.0,58,-99.99,,,0.00,weatherlink.com 1.10,2013-02-25 21:49:00,
2013-02-25 17:04:00,44.0,30.0,30.11,East,100,0.0,-999.0,58,-99.99,,,0.00,weatherlink.com 1.10,2013-02-25 22:04:00,
2013-02-25 17:19:00,43.7,30.0,30.11,ENE,67,1.0,-999.0,59,-99.99,,,0.00,weatherlink.com 1.10,2013-02-25 22:19:00,
2013-02-25 17:34:00,43.3,30.0,30.11,NE,40,1.0,-999.0,60,-99.99,,,0.00,weatherlink.com 1.10,2013-02-25 22:34:00,
2013-02-25 17:49:00,42.7,29.0,30.10,SE,127,0.0,-999.0,59,-99.99,,,0.00,weatherlink.com 1.10,2013-02-25 22:49:00,
2013-02-25 18:04:00,42.0,30.0,30.10,East,100,0.0,-999.0,62,-99.99,,,0.00,weatherlink.com 1.10,2013-02-25 23:04:00,
2013-02-25 18:19:00,41.4,30.0,30.11,East,101,0.0,-999.0,63,-99.99,,,0.00,weatherlink.com 1.10,2013-02-25 23:19:00,
2013-02-25 18:34:00,41.1,30.0,30.11,SE,136,0.0,-999.0,64,-99.99,,,0.00,weatherlink.com 1.10,2013-02-25 23:34:00,
2013-02-25 18:49:00,40.9,30.0,30.12,East,86,0.0,-999.0,66,-99.99,,,0.00,weatherlink.com 1.10,2013-02-25 23:49:00,
2013-02-25 19:04:00,40.6,30.0,30.12,SE,128,0.0,-999.0,66,-99.99,,,0.00,weatherlink.com 1.10,2013-02-26 00:04:00,
2013-02-25 19:19:00,40.5,30.0,30.12,East,99,0.0,-999.0,67,-99.99,,,0.00,weatherlink.com 1.10,2013-02-26 00:19:00,
2013-02-25 19:34:00,40.1,30.0,30.12,SE,128,0.0,-999.0,68,-99.99,,,0.00,weatherlink.com 1.10,2013-02-26 00:34:00,
2013-02-25 19:49:00,39.8,30.0,30.11,ENE,76,1.0,-999.0,68,-99.99,,,0.00,weatherlink.com 1.10,2013-02-26 00:49:00,
2013-02-25 20:04:00,39.5,30.0,30.12,ESE,115,2.0,-999.0,68,-99.99,,,0.00,weatherlink.com 1.10,2013-02-26 01:04:00,
2013-02-25 20:19:00,39.3,30.0,30.13,SE,128,2.0,-999.0,69,-99.99,,,0.00,weatherlink.com 1.10,2013-02-26 01:19:00,
2013-02-25 20:34:00,39.0,30.0,30.12,ESE,123,0.0,-999.0,69,-99.99,,,0.00,weatherlink.com 1.10,2013-02-26 01:34:00,
2013-02-25 20:49:00,38.8,29.0,30.13,ESE,111,0.0,-999.0,69,-99.99,,,0.00,weatherlink.com 1.10,2013-02-26 01:49:00,
2013-02-25 21:04:00,38.5,29.0,30.13,ENE,74,5.0,-999.0,69,-99.99,,,0.00,weatherlink.com 1.10,2013-02-26 02:04:00,
2013-02-25 21:19:00,38.2,30.0,30.13,ENE,76,0.0,-999.0,72,-99.99,,,0.00,weatherlink.com 1.10,2013-02-26 02:19:00,
2013-02-25 21:34:00,37.7,30.0,30.14,ENE,68,0.0,-999.0,74,-99.99,,,0.00,weatherlink.com 1.10,2013-02-26 02:34:00,
2013-02-25 21:49:00,36.7,29.0,30.13,East,94,4.0,-999.0,75,-99.99,,,0.00,weatherlink.com 1.10,2013-02-26 02:49:00,
2013-02-25 22:04:00,35.9,28.0,30.12,ESE,121,0.0,-999.0,72,-99.99,,,0.00,weatherlink.com 1.10,2013-02-26 03:04:00,
2013-02-25 22:19:00,35.2,25.0,30.14,East,84,0.0,-999.0,67,-99.99,,,0.01,weatherlink.com 1.10,2013-02-26 03:19:00,
2013-02-25 22:34:00,34.9,20.0,30.12,ENE,74,1.0,-999.0,56,-99.99,,,0.01,weatherlink.com 1.10,2013-02-26 03:34:00,
2013-02-25 22:49:00,34.6,16.0,30.13,ESE,119,0.0,-999.0,47,-99.99,,,0.01,weatherlink.com 1.10,2013-02-26 03:49:00,
2013-02-25 23:04:00,34.4,11.0,30.13,East,98,1.0,-999.0,38,-99.99,,,0.02,weatherlink.com 1.10,2013-02-26 04:04:00,
2013-02-25 23:19:00,34.3,9.0,30.12,East,98,0.0,-999.0,35,-99.99,,,0.03,weatherlink.com 1.10,2013-02-26 04:19:00,
2013-02-25 23:34:00,34.2,6.0,30.12,ESE,109,1.0,-999.0,31,-99.99,,,0.03,weatherlink.com 1.10,2013-02-26 04:34:00,
2013-02-25 23:49:00,34.1,3.0,30.12,NNE,22,0.0,-999.0,27,-99.99,,,0.03,weatherlink.com 1.10,2013-02-26 04:49:00,